Time;durP1;ratioP1;P1;durP2;ratioP2;P2;SDS_P1;SDS_P2;PMS_P1;PMS_P2;Temp;Humidity;BMP_temperature;BMP_pressure;BME280_temperature;BME280_humidity;BME280_pressure;Samples;Min_cycle;Max_cycle;Signal;HPM_P1;HPM_P2
2022/01/29 00:01:49;;;;;;;;;;;6.40;99.90;;;;;;5056518;28;19943;-44
2022/01/29 00:04:16;;;;;;;;;;;6.40;99.90;;;;;;5036236;28;20555;-44
2022/01/29 00:06:43;;;;;;;;;;;6.40;99.90;;;;;;5070849;28;19916;-43
2022/01/29 00:09:13;;;;;;;;;;;6.40;99.90;;;;;;5053296;28;20353;-42
2022/01/29 00:11:39;;;;;;;;;;;6.40;99.90;;;;;;5047352;28;20008;-42
2022/01/29 00:14:08;;;;;;;;;;;6.40;99.90;;;;;;5055026;28;19962;-43
2022/01/29 00:16:34;;;;;;;;;;;6.50;99.90;;;;;;5053027;28;19920;-41
2022/01/29 00:18:59;;;;;;;;;;;6.40;99.90;;;;;;5051984;28;20414;-43
2022/01/29 00:21:25;;;;;;;;;;;6.50;99.90;;;;;;5049789;28;19999;-42
2022/01/29 00:23:51;;;;;;;;;;;6.50;99.90;;;;;;5039225;28;20484;-43
2022/01/29 00:26:20;;;;;;;;;;;6.50;99.90;;;;;;5052094;28;19920;-43
2022/01/29 00:28:46;;;;;;;;;;;6.50;99.90;;;;;;5071508;28;20307;-43
2022/01/29 00:31:12;;;;;;;;;;;6.50;99.90;;;;;;5050485;28;19942;-42
2022/01/29 00:33:39;;;;;;;;;;;6.60;99.90;;;;;;5058982;28;19916;-43
2022/01/29 00:36:05;;;;;;;;;;;6.60;99.90;;;;;;5069341;28;20007;-45
2022/01/29 00:38:32;;;;;;;;;;;6.60;99.90;;;;;;5050157;28;19920;-42
2022/01/29 00:40:57;;;;;;;;;;;6.60;99.90;;;;;;5051853;28;19963;-43
2022/01/29 00:43:23;;;;;;;;;;;6.60;99.90;;;;;;5069514;28;19955;-43
2022/01/29 00:45:49;;;;;;;;;;;6.60;99.90;;;;;;5051535;28;19935;-43
2022/01/29 00:48:15;;;;;;;;;;;6.60;99.90;;;;;;5054256;28;19924;-42
2022/01/29 00:50:40;;;;;;;;;;;6.60;99.90;;;;;;5084646;28;19999;-44
2022/01/29 00:53:06;;;;;;;;;;;6.60;99.90;;;;;;5033349;28;19923;-42
2022/01/29 00:55:41;;;;;;;;;;;6.60;99.90;;;;;;5057823;28;19927;-42
2022/01/29 00:58:07;;;;;;;;;;;6.60;99.90;;;;;;5054487;28;19924;-42
2022/01/29 01:00:33;;;;;;;;;;;6.60;99.90;;;;;;5077660;28;19920;-43
2022/01/29 01:02:59;;;;;;;;;;;6.70;99.90;;;;;;5051978;28;19943;-44
2022/01/29 01:05:25;;;;;;;;;;;6.70;99.90;;;;;;5069516;28;19916;-42
2022/01/29 01:07:51;;;;;;;;;;;6.70;99.90;;;;;;5059336;28;19952;-44
2022/01/29 01:10:18;;;;;;;;;;;6.70;99.90;;;;;;5077041;28;20378;-42
2022/01/29 01:12:44;;;;;;;;;;;6.70;99.90;;;;;;5038227;28;20335;-43
2022/01/29 01:15:09;;;;;;;;;;;6.80;99.90;;;;;;5073671;28;19924;-42
2022/01/29 01:17:35;;;;;;;;;;;6.80;99.90;;;;;;5070590;28;19928;-43
2022/01/29 01:20:02;;;;;;;;;;;6.80;99.90;;;;;;5056805;28;19965;-43
2022/01/29 01:22:28;;;;;;;;;;;6.80;99.90;;;;;;5086601;28;20318;-44
2022/01/29 01:24:54;;;;;;;;;;;6.80;99.90;;;;;;5070191;28;19992;-43
2022/01/29 01:27:19;;;;;;;;;;;6.80;99.90;;;;;;5057516;28;20274;-42
2022/01/29 01:29:45;;;;;;;;;;;6.80;99.90;;;;;;5071018;28;20091;-43
2022/01/29 01:32:11;;;;;;;;;;;6.80;99.90;;;;;;5059465;28;19923;-44
2022/01/29 01:34:42;;;;;;;;;;;6.90;99.90;;;;;;5058153;28;19924;-44
2022/01/29 01:37:12;;;;;;;;;;;6.90;99.90;;;;;;5051737;28;20516;-42
2022/01/29 01:39:40;;;;;;;;;;;6.90;99.90;;;;;;5067000;28;19970;-43
2022/01/29 01:42:07;;;;;;;;;;;6.90;99.90;;;;;;5071934;28;20369;-46
2022/01/29 01:44:33;;;;;;;;;;;6.90;99.90;;;;;;5069352;28;19920;-44
2022/01/29 01:46:59;;;;;;;;;;;7.00;99.90;;;;;;5072267;28;19935;-44
2022/01/29 01:49:25;;;;;;;;;;;7.00;99.90;;;;;;5019474;28;19925;-42
2022/01/29 01:51:51;;;;;;;;;;;7.00;99.90;;;;;;5066389;28;19963;-43
2022/01/29 01:54:17;;;;;;;;;;;7.00;99.90;;;;;;5058577;28;20265;-45
2022/01/29 01:56:42;;;;;;;;;;;7.00;99.90;;;;;;5085786;28;19916;-42
2022/01/29 01:59:08;;;;;;;;;;;7.00;99.90;;;;;;5051729;28;19969;-43
2022/01/29 02:01:34;;;;;;;;;;;7.00;99.90;;;;;;5055892;28;20848;-43
2022/01/29 02:04:01;;;;;;;;;;;7.00;99.90;;;;;;5071924;28;20003;-43
2022/01/29 02:06:27;;;;;;;;;;;7.00;99.90;;;;;;5072729;28;19955;-43
2022/01/29 02:08:58;;;;;;;;;;;7.00;99.90;;;;;;5062532;28;20386;-43
2022/01/29 02:11:24;;;;;;;;;;;7.10;99.90;;;;;;5035081;28;19916;-44
2022/01/29 02:13:51;;;;;;;;;;;7.10;99.90;;;;;;5055384;28;19916;-43
2022/01/29 02:16:17;;;;;;;;;;;7.10;99.90;;;;;;5037768;28;19916;-42
2022/01/29 02:18:42;;;;;;;;;;;7.10;99.90;;;;;;5087109;28;19966;-43
2022/01/29 02:21:08;;;;;;;;;;;7.20;99.90;;;;;;5036423;28;20014;-45
2022/01/29 02:23:34;;;;;;;;;;;7.10;99.90;;;;;;5073572;28;19931;-43
2022/01/29 02:26:00;;;;;;;;;;;7.20;99.90;;;;;;5059341;28;19917;-43
2022/01/29 02:28:26;;;;;;;;;;;7.20;99.90;;;;;;5063377;28;19920;-44
2022/01/29 02:30:58;;;;;;;;;;;7.20;99.90;;;;;;5053554;28;20000;-43
2022/01/29 02:33:25;;;;;;;;;;;7.20;99.90;;;;;;5075259;28;20383;-44
2022/01/29 02:35:52;;;;;;;;;;;7.20;99.90;;;;;;5036220;28;19994;-43
2022/01/29 02:38:20;;;;;;;;;;;7.20;99.90;;;;;;5053850;28;19971;-42
2022/01/29 02:40:49;;;;;;;;;;;7.30;99.90;;;;;;5072497;28;19924;-43
2022/01/29 02:43:16;;;;;;;;;;;7.30;99.90;;;;;;5047358;28;19925;-45
2022/01/29 02:45:43;;;;;;;;;;;7.30;99.90;;;;;;5070925;28;20019;-44
2022/01/29 02:48:10;;;;;;;;;;;7.30;99.90;;;;;;5068679;28;20017;-44
2022/01/29 02:50:36;;;;;;;;;;;7.30;99.90;;;;;;5036205;28;19928;-43
2022/01/29 02:53:02;;;;;;;;;;;7.30;99.90;;;;;;5070590;28;19932;-44
2022/01/29 02:55:29;;;;;;;;;;;7.30;99.90;;;;;;5059934;28;19925;-45
2022/01/29 02:57:55;;;;;;;;;;;7.30;99.90;;;;;;5082697;28;20321;-44
2022/01/29 03:00:21;;;;;;;;;;;7.40;99.90;;;;;;5039724;28;20006;-42
2022/01/29 03:02:48;;;;;;;;;;;7.40;99.90;;;;;;5053568;28;19924;-44
2022/01/29 03:05:14;;;;;;;;;;;7.40;99.90;;;;;;5060287;28;19974;-45
2022/01/29 03:07:39;;;;;;;;;;;7.20;99.90;;;;;;5067973;28;19962;-43
2022/01/29 03:10:05;;;;;;;;;;;7.40;99.90;;;;;;5058166;28;20360;-43
2022/01/29 03:12:31;;;;;;;;;;;7.40;99.90;;;;;;5083718;28;20262;-44
2022/01/29 03:14:57;;;;;;;;;;;7.40;99.90;;;;;;5073451;28;19927;-45
2022/01/29 03:17:23;;;;;;;;;;;7.40;99.90;;;;;;5059680;28;20006;-44
2022/01/29 03:19:52;;;;;;;;;;;7.50;99.90;;;;;;5054989;28;19916;-43
2022/01/29 03:22:18;;;;;;;;;;;7.50;99.90;;;;;;5067152;28;20006;-43
2022/01/29 03:24:44;;;;;;;;;;;7.50;99.90;;;;;;5070394;28;20386;-44
2022/01/29 03:27:09;;;;;;;;;;;7.50;99.90;;;;;;5032575;28;20318;-44
2022/01/29 03:29:35;;;;;;;;;;;7.50;99.90;;;;;;5088353;28;19917;-43
2022/01/29 03:32:01;;;;;;;;;;;7.50;99.90;;;;;;5072006;28;20004;-43
2022/01/29 03:34:27;;;;;;;;;;;7.50;99.90;;;;;;5066884;28;19974;-44
2022/01/29 03:36:55;;;;;;;;;;;7.60;99.90;;;;;;5067591;28;19916;-43
2022/01/29 03:39:23;;;;;;;;;;;7.60;99.90;;;;;;5052649;28;19982;-44
2022/01/29 03:41:48;;;;;;;;;;;7.60;99.90;;;;;;5051105;28;19986;-43
2022/01/29 03:44:14;;;;;;;;;;;7.60;99.90;;;;;;5064640;28;19936;-43
2022/01/29 03:46:40;;;;;;;;;;;7.60;99.90;;;;;;5074600;28;19966;-43
2022/01/29 03:49:05;;;;;;;;;;;7.60;99.90;;;;;;5066664;28;19920;-45
2022/01/29 03:51:31;;;;;;;;;;;7.60;99.90;;;;;;5075230;28;19920;-43
2022/01/29 03:53:57;;;;;;;;;;;7.60;99.90;;;;;;5050519;28;19924;-43
2022/01/29 03:56:23;;;;;;;;;;;7.60;99.90;;;;;;5040640;28;20370;-45
2022/01/29 03:58:49;;;;;;;;;;;7.70;99.90;;;;;;5065043;28;20362;-44
2022/01/29 04:01:15;;;;;;;;;;;7.70;99.90;;;;;;5067251;28;19928;-42
2022/01/29 04:03:41;;;;;;;;;;;7.70;99.90;;;;;;5051925;28;20343;-44
2022/01/29 04:06:07;;;;;;;;;;;7.70;99.90;;;;;;5050367;28;19943;-45
2022/01/29 04:08:39;;;;;;;;;;;7.70;99.90;;;;;;5045483;28;19920;-43
2022/01/29 04:11:06;;;;;;;;;;;7.70;99.90;;;;;;5037398;28;19916;-44
2022/01/29 04:13:32;;;;;;;;;;;7.70;99.90;;;;;;5089150;28;19916;-45
2022/01/29 04:15:57;;;;;;;;;;;7.70;99.90;;;;;;5033273;28;19920;-44
2022/01/29 04:18:23;;;;;;;;;;;7.70;99.90;;;;;;5055401;28;20282;-43
2022/01/29 04:20:49;;;;;;;;;;;7.70;99.90;;;;;;5062877;28;19921;-44
2022/01/29 04:23:15;;;;;;;;;;;7.70;99.90;;;;;;5050118;28;20403;-43
2022/01/29 04:25:40;;;;;;;;;;;7.70;99.90;;;;;;5052336;28;20883;-43
2022/01/29 04:28:09;;;;;;;;;;;7.80;99.90;;;;;;5051430;28;19939;-43
2022/01/29 04:30:44;;;;;;;;;;;7.80;99.90;;;;;;5065408;28;20053;-44
2022/01/29 04:35:39;;;;;;;;;;;7.80;99.90;;;;;;5062174;28;20034;-44
2022/01/29 04:38:04;;;;;;;;;;;7.80;99.90;;;;;;5051557;28;19928;-45
2022/01/29 04:40:30;;;;;;;;;;;7.80;99.90;;;;;;5069544;28;19927;-44
2022/01/29 04:42:56;;;;;;;;;;;7.80;99.90;;;;;;5050001;28;19963;-43
2022/01/29 04:45:22;;;;;;;;;;;7.80;99.90;;;;;;5077943;28;20013;-44
2022/01/29 04:47:48;;;;;;;;;;;7.80;99.90;;;;;;5067487;28;20086;-45
2022/01/29 04:50:13;;;;;;;;;;;7.90;99.90;;;;;;5066526;28;19962;-44
2022/01/29 04:52:39;;;;;;;;;;;7.90;99.90;;;;;;5066679;28;19936;-43
2022/01/29 04:55:06;;;;;;;;;;;7.90;99.90;;;;;;5056420;28;19920;-43
2022/01/29 04:57:33;;;;;;;;;;;7.90;99.90;;;;;;5052328;28;19932;-43
2022/01/29 04:59:59;;;;;;;;;;;7.90;99.90;;;;;;5052578;28;20362;-44
2022/01/29 05:02:24;;;;;;;;;;;7.90;99.90;;;;;;5040544;28;19916;-44
2022/01/29 05:04:50;;;;;;;;;;;8.00;99.90;;;;;;5075532;28;19948;-43
2022/01/29 05:07:16;;;;;;;;;;;7.90;99.90;;;;;;5053340;28;20273;-42
2022/01/29 05:09:42;;;;;;;;;;;7.90;99.90;;;;;;5066735;28;20034;-46
2022/01/29 05:12:08;;;;;;;;;;;7.90;99.90;;;;;;5054469;28;20003;-44
2022/01/29 05:27:54;;;;;;;;;;;8.00;99.90;;;;;;5071014;28;20000;-44
2022/01/29 05:30:19;;;;;;;;;;;8.00;99.90;;;;;;5068788;28;20003;-43
2022/01/29 05:32:45;;;;;;;;;;;8.00;99.90;;;;;;5050671;28;19916;-44
2022/01/29 05:35:11;;;;;;;;;;;8.00;99.90;;;;;;5070865;28;19940;-43
2022/01/29 05:37:36;;;;;;;;;;;8.00;99.90;;;;;;5070896;28;19920;-43
2022/01/29 05:40:02;;;;;;;;;;;8.00;99.90;;;;;;5071962;28;19916;-43
2022/01/29 05:42:28;;;;;;;;;;;8.00;99.90;;;;;;5052020;28;19928;-45
2022/01/29 05:44:54;;;;;;;;;;;8.00;99.90;;;;;;5074632;28;19923;-44
2022/01/29 05:47:20;;;;;;;;;;;8.00;99.90;;;;;;5053216;28;20374;-44
2022/01/29 05:49:45;;;;;;;;;;;8.00;99.90;;;;;;5077903;28;20026;-43
2022/01/29 05:52:11;;;;;;;;;;;8.10;99.90;;;;;;5057592;28;19939;-44
2022/01/29 05:54:37;;;;;;;;;;;8.10;99.90;;;;;;5069454;28;19921;-43
2022/01/29 05:57:03;;;;;;;;;;;8.10;99.90;;;;;;5071220;28;19928;-44
2022/01/29 05:59:31;;;;;;;;;;;8.00;99.90;;;;;;5045056;28;20002;-45
2022/01/29 06:01:56;;;;;;;;;;;8.10;99.90;;;;;;5052112;28;19916;-43
2022/01/29 06:04:22;;;;;;;;;;;8.10;99.90;;;;;;5055548;28;19936;-45
2022/01/29 06:06:48;;;;;;;;;;;8.10;99.90;;;;;;5070643;28;19965;-44
2022/01/29 06:09:13;;;;;;;;;;;8.10;99.90;;;;;;5038770;28;19947;-44
2022/01/29 06:11:39;;;;;;;;;;;8.10;99.90;;;;;;5050641;28;19973;-44
2022/01/29 06:14:05;;;;;;;;;;;8.10;99.90;;;;;;5054884;28;19924;-43
2022/01/29 06:16:31;;;;;;;;;;;8.10;99.90;;;;;;5069495;28;19958;-43
2022/01/29 06:18:56;;;;;;;;;;;8.10;99.90;;;;;;5042193;28;19920;-45
2022/01/29 06:21:22;;;;;;;;;;;8.20;99.90;;;;;;5052700;28;19995;-44
2022/01/29 06:23:48;;;;;;;;;;;8.20;99.90;;;;;;5048689;28;19916;-43
2022/01/29 06:26:13;;;;;;;;;;;8.20;99.90;;;;;;5051979;28;19924;-43
2022/01/29 06:28:40;;;;;;;;;;;8.20;99.90;;;;;;5069288;28;19928;-44
2022/01/29 06:31:06;;;;;;;;;;;8.20;99.90;;;;;;5066430;28;19926;-44
2022/01/29 06:33:33;;;;;;;;;;;8.20;99.90;;;;;;5075958;28;19923;-44
2022/01/29 06:35:58;;;;;;;;;;;8.20;99.90;;;;;;5068686;28;20051;-44
2022/01/29 06:38:24;;;;;;;;;;;8.20;99.90;;;;;;5038433;28;20455;-43
2022/01/29 06:40:50;;;;;;;;;;;8.20;99.90;;;;;;5069780;28;19920;-44
2022/01/29 06:43:17;;;;;;;;;;;8.20;99.90;;;;;;5068800;28;20006;-44
2022/01/29 06:45:44;;;;;;;;;;;8.30;99.90;;;;;;5069399;28;20020;-46
2022/01/29 06:48:10;;;;;;;;;;;8.30;99.90;;;;;;5048800;28;20024;-43
2022/01/29 06:50:37;;;;;;;;;;;8.20;99.90;;;;;;5062405;28;19931;-43
2022/01/29 06:53:03;;;;;;;;;;;8.20;99.90;;;;;;5051876;28;19931;-44
2022/01/29 06:55:29;;;;;;;;;;;8.30;99.90;;;;;;5068719;28;19930;-46
2022/01/29 06:57:54;;;;;;;;;;;8.20;99.90;;;;;;5029076;28;19928;-43
2022/01/29 07:00:20;;;;;;;;;;;8.30;99.90;;;;;;5053851;28;20449;-44
2022/01/29 07:02:46;;;;;;;;;;;8.30;99.90;;;;;;5034197;28;19923;-44
2022/01/29 07:05:12;;;;;;;;;;;8.20;99.90;;;;;;5068123;28;19920;-44
2022/01/29 07:07:38;;;;;;;;;;;8.30;99.90;;;;;;5049343;28;19916;-43
2022/01/29 07:10:04;;;;;;;;;;;8.30;99.90;;;;;;5050224;28;19946;-44
2022/01/29 07:12:30;;;;;;;;;;;8.30;99.90;;;;;;5032821;28;19963;-44
2022/01/29 07:14:56;;;;;;;;;;;8.30;99.90;;;;;;5065877;28;19982;-43
2022/01/29 07:17:23;;;;;;;;;;;8.30;99.90;;;;;;5049090;28;19998;-44
2022/01/29 07:19:52;;;;;;;;;;;8.30;99.90;;;;;;5050410;28;19986;-43
2022/01/29 07:22:18;;;;;;;;;;;8.30;99.90;;;;;;5061873;28;19920;-43
2022/01/29 07:24:44;;;;;;;;;;;8.20;99.90;;;;;;5049929;28;19927;-44
2022/01/29 07:27:10;;;;;;;;;;;8.30;99.90;;;;;;5060975;28;19932;-44
2022/01/29 07:29:35;;;;;;;;;;;8.30;99.90;;;;;;5067629;28;19916;-44
2022/01/29 07:32:02;;;;;;;;;;;8.30;99.90;;;;;;5067379;28;19916;-44
2022/01/29 07:34:27;;;;;;;;;;;8.30;99.90;;;;;;5032370;28;19921;-44
2022/01/29 07:36:54;;;;;;;;;;;8.30;99.90;;;;;;5050385;28;19924;-44
2022/01/29 07:39:20;;;;;;;;;;;8.30;99.90;;;;;;5046747;28;19916;-43
2022/01/29 07:41:46;;;;;;;;;;;8.30;99.90;;;;;;5054323;28;19916;-45
2022/01/29 07:44:12;;;;;;;;;;;8.30;99.90;;;;;;5065675;28;19925;-43
2022/01/29 07:46:38;;;;;;;;;;;8.30;99.90;;;;;;5030643;28;20451;-44
2022/01/29 07:49:04;;;;;;;;;;;8.30;99.90;;;;;;5066934;28;20036;-44
2022/01/29 07:51:29;;;;;;;;;;;8.30;99.90;;;;;;5030769;28;20364;-43
2022/01/29 07:53:55;;;;;;;;;;;8.30;99.90;;;;;;5057919;28;20412;-45
2022/01/29 07:56:21;;;;;;;;;;;8.30;99.90;;;;;;5049537;28;19920;-44
2022/01/29 07:58:48;;;;;;;;;;;8.30;99.90;;;;;;5064046;28;20641;-45
2022/01/29 08:01:14;;;;;;;;;;;8.30;99.90;;;;;;5044588;28;19916;-43
2022/01/29 08:03:40;;;;;;;;;;;8.30;99.90;;;;;;5066360;28;19977;-43
2022/01/29 08:06:06;;;;;;;;;;;8.30;99.90;;;;;;5050383;28;20394;-45
2022/01/29 08:08:32;;;;;;;;;;;8.30;99.90;;;;;;5046878;28;19931;-43
2022/01/29 08:10:57;;;;;;;;;;;8.30;99.90;;;;;;5051058;28;19927;-43
2022/01/29 08:13:23;;;;;;;;;;;8.30;99.90;;;;;;5065139;28;20322;-45
2022/01/29 08:15:49;;;;;;;;;;;8.30;99.90;;;;;;5033387;28;19992;-44
2022/01/29 08:18:15;;;;;;;;;;;8.30;99.90;;;;;;5073056;28;20422;-43
2022/01/29 08:20:41;;;;;;;;;;;8.30;99.90;;;;;;5066128;28;20465;-43
2022/01/29 08:23:07;;;;;;;;;;;8.40;99.90;;;;;;5069165;28;19967;-45
2022/01/29 08:25:33;;;;;;;;;;;8.40;99.90;;;;;;5061689;28;19932;-47
2022/01/29 08:27:59;;;;;;;;;;;8.40;99.90;;;;;;5069159;28;19973;-44
2022/01/29 08:30:25;;;;;;;;;;;8.40;99.90;;;;;;5050847;28;20312;-45
2022/01/29 08:32:50;;;;;;;;;;;8.40;99.90;;;;;;5065737;28;20005;-45
2022/01/29 08:35:16;;;;;;;;;;;8.40;99.90;;;;;;5066996;28;19924;-45
2022/01/29 08:37:42;;;;;;;;;;;8.50;99.90;;;;;;5071560;28;19920;-44
2022/01/29 08:40:09;;;;;;;;;;;8.50;99.90;;;;;;5069469;28;19948;-43
2022/01/29 08:42:34;;;;;;;;;;;8.50;99.90;;;;;;5034308;28;20527;-43
2022/01/29 08:45:02;;;;;;;;;;;8.50;99.90;;;;;;5048258;28;19917;-43
2022/01/29 08:47:27;;;;;;;;;;;8.50;99.90;;;;;;5067139;28;19925;-44
2022/01/29 08:49:53;;;;;;;;;;;8.50;99.90;;;;;;5081268;28;20320;-43
2022/01/29 08:52:19;;;;;;;;;;;8.60;99.90;;;;;;5065136;28;19925;-43
2022/01/29 08:54:44;;;;;;;;;;;8.60;99.90;;;;;;5033124;28;19928;-44
2022/01/29 08:57:10;;;;;;;;;;;8.60;99.90;;;;;;5066622;28;20415;-44
2022/01/29 08:59:36;;;;;;;;;;;8.70;99.90;;;;;;5066952;28;20015;-43
2022/01/29 09:02:01;;;;;;;;;;;8.70;99.90;;;;;;5048680;28;20297;-44
2022/01/29 09:04:28;;;;;;;;;;;8.80;99.90;;;;;;5065927;28;19932;-44
2022/01/29 09:06:54;;;;;;;;;;;8.90;99.90;;;;;;5070384;28;19923;-44
2022/01/29 09:09:24;;;;;;;;;;;8.90;99.90;;;;;;5067846;28;20250;-44
2022/01/29 09:11:51;;;;;;;;;;;8.90;99.90;;;;;;5048858;28;19919;-44
2022/01/29 09:14:17;;;;;;;;;;;8.90;99.90;;;;;;5069281;28;20387;-43
2022/01/29 09:16:43;;;;;;;;;;;9.00;99.90;;;;;;5048391;28;19969;-43
2022/01/29 09:19:09;;;;;;;;;;;9.00;99.90;;;;;;5086164;28;19924;-45
2022/01/29 09:21:35;;;;;;;;;;;9.00;99.90;;;;;;5069490;28;20024;-43
2022/01/29 09:24:00;;;;;;;;;;;9.00;99.90;;;;;;5050496;28;20323;-43
2022/01/29 09:26:26;;;;;;;;;;;9.00;99.90;;;;;;5052126;28;20318;-44
2022/01/29 09:28:52;;;;;;;;;;;9.10;99.90;;;;;;5071733;28;19948;-45
2022/01/29 09:31:18;;;;;;;;;;;9.10;99.90;;;;;;5070266;28;20023;-44
2022/01/29 09:33:43;;;;;;;;;;;9.10;99.90;;;;;;5069290;28;19916;-43
2022/01/29 09:36:09;;;;;;;;;;;9.10;99.90;;;;;;5064075;28;19924;-43
2022/01/29 09:38:35;;;;;;;;;;;9.10;99.90;;;;;;5076356;28;20327;-46
2022/01/29 09:41:02;;;;;;;;;;;9.20;99.90;;;;;;5075187;28;20002;-43
2022/01/29 09:43:28;;;;;;;;;;;9.20;99.90;;;;;;5081418;28;19928;-43
2022/01/29 09:45:54;;;;;;;;;;;9.20;99.90;;;;;;5070777;28;19916;-42
2022/01/29 09:48:23;;;;;;;;;;;9.20;99.90;;;;;;5065880;28;19927;-43
2022/01/29 09:50:49;;;;;;;;;;;9.20;99.90;;;;;;5051795;28;19916;-45
2022/01/29 09:53:15;;;;;;;;;;;9.30;99.90;;;;;;5067537;28;19927;-45
2022/01/29 09:55:43;;;;;;;;;;;9.30;99.90;;;;;;5051030;28;19963;-44
2022/01/29 09:58:09;;;;;;;;;;;9.30;99.90;;;;;;5070917;28;19947;-44
2022/01/29 10:00:36;;;;;;;;;;;9.40;99.90;;;;;;5055177;28;20331;-44
2022/01/29 10:03:11;;;;;;;;;;;9.40;99.90;;;;;;5070324;28;19924;-44
2022/01/29 10:05:40;;;;;;;;;;;9.40;99.90;;;;;;5059237;28;20255;-43
2022/01/29 10:08:06;;;;;;;;;;;9.40;99.90;;;;;;5072772;28;19930;-46
2022/01/29 10:10:39;;;;;;;;;;;9.40;99.90;;;;;;5036440;28;19916;-45
2022/01/29 10:13:21;;;;;;;;;;;9.50;99.90;;;;;;5055069;28;19920;-45
2022/01/29 10:15:49;;;;;;;;;;;9.50;99.90;;;;;;5069563;28;19916;-44
2022/01/29 10:18:21;;;;;;;;;;;9.50;99.90;;;;;;5071300;28;19920;-44
2022/01/29 10:20:47;;;;;;;;;;;9.50;99.90;;;;;;5068790;28;19964;-45
2022/01/29 10:23:13;;;;;;;;;;;9.50;99.90;;;;;;5053233;28;20346;-44
2022/01/29 10:25:42;;;;;;;;;;;9.60;99.90;;;;;;5040339;28;19928;-44
2022/01/29 10:28:14;;;;;;;;;;;9.50;99.90;;;;;;5073227;28;19977;-46
2022/01/29 10:30:49;;;;;;;;;;;9.50;99.90;;;;;;5071193;28;19924;-45
2022/01/29 10:33:20;;;;;;;;;;;9.50;99.90;;;;;;5067600;28;19924;-48
2022/01/29 10:35:48;;;;;;;;;;;9.60;99.90;;;;;;5073508;28;19962;-44
2022/01/29 10:38:17;;;;;;;;;;;9.60;99.90;;;;;;5034852;28;20331;-45
2022/01/29 10:40:43;;;;;;;;;;;9.60;99.90;;;;;;5053352;28;19969;-46
2022/01/29 10:43:09;;;;;;;;;;;9.60;99.90;;;;;;5059055;28;19920;-44
2022/01/29 10:45:36;;;;;;;;;;;9.60;99.90;;;;;;5068574;28;20089;-43
2022/01/29 10:48:05;;;;;;;;;;;9.60;99.90;;;;;;5054019;28;19923;-51
2022/01/29 10:50:31;;;;;;;;;;;9.60;99.90;;;;;;5050323;28;19931;-50
2022/01/29 10:52:58;;;;;;;;;;;9.60;99.90;;;;;;5066773;28;19958;-50
2022/01/29 10:55:23;;;;;;;;;;;9.70;99.90;;;;;;5061759;28;19932;-50
2022/01/29 10:57:49;;;;;;;;;;;9.70;99.90;;;;;;5050118;28;19940;-53
2022/01/29 11:00:22;;;;;;;;;;;9.70;99.90;;;;;;5069164;28;19963;-51
2022/01/29 11:02:49;;;;;;;;;;;9.70;99.90;;;;;;5062331;28;19917;-51
2022/01/29 11:05:15;;;;;;;;;;;9.70;99.90;;;;;;5028379;28;19923;-50
2022/01/29 11:07:51;;;;;;;;;;;9.70;99.90;;;;;;5069443;28;20314;-49
2022/01/29 11:10:17;;;;;;;;;;;9.70;99.90;;;;;;5061863;28;20083;-53
2022/01/29 11:12:44;;;;;;;;;;;9.70;99.90;;;;;;5068143;28;19968;-48
2022/01/29 11:15:10;;;;;;;;;;;9.80;99.90;;;;;;5049145;28;19920;-51
2022/01/29 11:17:36;;;;;;;;;;;9.70;99.90;;;;;;5070141;28;19950;-51
2022/01/29 11:20:02;;;;;;;;;;;9.80;99.90;;;;;;5067120;28;19924;-52
2022/01/29 11:22:30;;;;;;;;;;;9.80;99.90;;;;;;5061326;28;19966;-50
2022/01/29 11:25:00;;;;;;;;;;;9.80;99.90;;;;;;5049116;28;20373;-52
2022/01/29 11:27:27;;;;;;;;;;;9.90;99.90;;;;;;5067122;28;20362;-50
2022/01/29 11:30:08;;;;;;;;;;;9.90;99.90;;;;;;5046939;28;19924;-51
2022/01/29 11:32:39;;;;;;;;;;;9.90;99.90;;;;;;5068843;28;20271;-50
2022/01/29 11:35:04;;;;;;;;;;;9.90;99.90;;;;;;5047914;28;20003;-49
2022/01/29 11:37:39;;;;;;;;;;;9.90;99.90;;;;;;5070908;28;20057;-52
2022/01/29 11:40:11;;;;;;;;;;;9.90;99.90;;;;;;5050117;28;19917;-50
2022/01/29 11:42:37;;;;;;;;;;;10.00;99.90;;;;;;5051865;28;19969;-49
2022/01/29 11:45:21;;;;;;;;;;;9.90;99.90;;;;;;5048877;28;19916;-53
2022/01/29 11:47:47;;;;;;;;;;;9.90;99.90;;;;;;5067653;28;20018;-52
2022/01/29 11:50:19;;;;;;;;;;;9.90;99.90;;;;;;5067987;28;20346;-53
2022/01/29 11:52:55;;;;;;;;;;;10.00;99.90;;;;;;5041114;28;19970;-52
2022/01/29 11:55:34;;;;;;;;;;;10.00;99.90;;;;;;5066630;28;19920;-52
2022/01/29 11:58:13;;;;;;;;;;;10.00;99.90;;;;;;5050723;28;19924;-49
2022/01/29 12:00:39;;;;;;;;;;;10.00;99.90;;;;;;5067382;28;19916;-51
2022/01/29 12:03:05;;;;;;;;;;;10.10;99.90;;;;;;5057238;28;19968;-50
2022/01/29 12:05:51;;;;;;;;;;;10.20;99.90;;;;;;5062927;28;19917;-50
2022/01/29 12:08:19;;;;;;;;;;;10.20;99.90;;;;;;5050036;28;19916;-52
2022/01/29 12:10:54;;;;;;;;;;;10.20;99.90;;;;;;5066479;28;19916;-51
2022/01/29 12:13:20;;;;;;;;;;;10.30;99.90;;;;;;5032572;28;20503;-50
2022/01/29 12:15:46;;;;;;;;;;;10.40;99.90;;;;;;5030401;28;19955;-53
2022/01/29 12:18:24;;;;;;;;;;;10.40;99.90;;;;;;5044232;28;20406;-50
2022/01/29 12:20:49;;;;;;;;;;;10.40;99.90;;;;;;5066110;28;19920;-51
2022/01/29 12:23:15;;;;;;;;;;;10.50;99.90;;;;;;5048332;28;19916;-50
2022/01/29 12:25:41;;;;;;;;;;;10.50;99.90;;;;;;5064836;28;19920;-49
2022/01/29 12:28:09;;;;;;;;;;;10.50;99.90;;;;;;5063367;28;19974;-51
2022/01/29 12:30:36;;;;;;;;;;;10.50;99.90;;;;;;5067009;28;19917;-50
2022/01/29 12:33:04;;;;;;;;;;;10.50;99.90;;;;;;5066164;28;19920;-52
2022/01/29 12:35:34;;;;;;;;;;;10.60;99.90;;;;;;5050412;28;19920;-52
2022/01/29 12:38:00;;;;;;;;;;;10.60;99.90;;;;;;5055382;28;19928;-50
2022/01/29 12:40:26;;;;;;;;;;;10.70;99.90;;;;;;5050669;28;19992;-52
2022/01/29 12:42:56;;;;;;;;;;;10.70;99.90;;;;;;5044740;28;19935;-48
2022/01/29 12:45:26;;;;;;;;;;;10.80;99.90;;;;;;5069357;28;19923;-51
2022/01/29 12:48:05;;;;;;;;;;;10.80;99.90;;;;;;5066139;28;20510;-50
2022/01/29 12:50:30;;;;;;;;;;;10.80;99.90;;;;;;5050249;28;19917;-50
2022/01/29 12:53:10;;;;;;;;;;;10.80;99.90;;;;;;5048561;28;20413;-49
2022/01/29 12:55:35;;;;;;;;;;;10.80;99.90;;;;;;5070762;28;19928;-51
2022/01/29 12:58:01;;;;;;;;;;;10.80;99.90;;;;;;5051301;28;20020;-49
2022/01/29 13:00:28;;;;;;;;;;;10.80;99.90;;;;;;5070201;28;20433;-51
2022/01/29 13:03:02;;;;;;;;;;;10.80;99.90;;;;;;5053750;28;19920;-50
2022/01/29 13:05:27;;;;;;;;;;;10.80;99.90;;;;;;5053777;28;19932;-52
2022/01/29 13:07:53;;;;;;;;;;;10.70;99.90;;;;;;5087036;28;20003;-51
2022/01/29 13:10:19;;;;;;;;;;;10.70;99.90;;;;;;5036619;28;19920;-50
2022/01/29 13:12:45;;;;;;;;;;;10.60;99.90;;;;;;5072645;28;20266;-52
2022/01/29 13:15:12;;;;;;;;;;;10.60;99.90;;;;;;5085478;28;19916;-51
2022/01/29 13:17:42;;;;;;;;;;;10.70;99.90;;;;;;5069080;28;19946;-52
2022/01/29 13:20:09;;;;;;;;;;;10.70;99.90;;;;;;5062416;28;19943;-52
2022/01/29 13:22:40;;;;;;;;;;;10.70;99.90;;;;;;5068455;28;20359;-53
2022/01/29 13:25:07;;;;;;;;;;;10.80;99.90;;;;;;5050118;28;19916;-50
2022/01/29 13:27:34;;;;;;;;;;;10.80;99.90;;;;;;5021825;28;20482;-48
2022/01/29 13:30:18;;;;;;;;;;;10.90;99.90;;;;;;5052471;28;20539;-52
2022/01/29 13:32:49;;;;;;;;;;;11.10;99.90;;;;;;5052662;28;19959;-53
2022/01/29 13:35:15;;;;;;;;;;;11.10;99.90;;;;;;5053618;28;20339;-50
2022/01/29 13:37:40;;;;;;;;;;;11.10;99.90;;;;;;5051442;28;20054;-49
2022/01/29 13:40:09;;;;;;;;;;;11.10;99.90;;;;;;5055080;28;19947;-55
2022/01/29 13:42:51;;;;;;;;;;;11.10;99.90;;;;;;5046325;28;19935;-52
2022/01/29 13:45:20;;;;;;;;;;;11.00;99.90;;;;;;5071836;28;19946;-52
2022/01/29 13:48:05;;;;;;;;;;;11.10;99.90;;;;;;5068621;28;20343;-52
2022/01/29 13:50:31;;;;;;;;;;;11.00;99.90;;;;;;5070868;28;19921;-52
2022/01/29 13:52:58;;;;;;;;;;;11.00;99.90;;;;;;5054105;28;19920;-52
2022/01/29 13:55:24;;;;;;;;;;;11.00;99.90;;;;;;5073680;28;19928;-48
2022/01/29 13:58:09;;;;;;;;;;;11.00;99.90;;;;;;5075167;28;19966;-49
2022/01/29 14:00:50;;;;;;;;;;;11.00;99.90;;;;;;5051119;28;19924;-51
2022/01/29 14:03:18;;;;;;;;;;;10.90;99.90;;;;;;5069545;28;19917;-51
2022/01/29 14:05:44;;;;;;;;;;;10.90;99.90;;;;;;5051545;28;19923;-52
2022/01/29 14:08:17;;;;;;;;;;;10.90;99.90;;;;;;5056209;28;19917;-50
2022/01/29 14:10:42;;;;;;;;;;;10.80;99.90;;;;;;5071202;28;19935;-49
2022/01/29 14:13:08;;;;;;;;;;;10.80;99.90;;;;;;5070213;28;19916;-52
2022/01/29 14:15:35;;;;;;;;;;;10.80;99.90;;;;;;5070548;28;20327;-51
2022/01/29 14:18:01;;;;;;;;;;;10.80;99.90;;;;;;5068988;28;19924;-50
2022/01/29 14:20:27;;;;;;;;;;;10.80;99.90;;;;;;5070571;28;19927;-48
2022/01/29 14:22:52;;;;;;;;;;;10.90;99.90;;;;;;5021368;28;19924;-51
2022/01/29 14:25:19;;;;;;;;;;;10.90;99.90;;;;;;5053339;28;19923;-48
2022/01/29 14:27:46;;;;;;;;;;;10.90;99.90;;;;;;5050887;28;19922;-48
2022/01/29 14:30:12;;;;;;;;;;;10.90;99.90;;;;;;5054457;28;20343;-49
2022/01/29 14:32:38;;;;;;;;;;;10.90;99.90;;;;;;5070266;28;19964;-48
2022/01/29 14:35:09;;;;;;;;;;;10.90;99.90;;;;;;5055185;28;19934;-50
2022/01/29 14:37:35;;;;;;;;;;;10.90;99.90;;;;;;5053574;28;19920;-48
2022/01/29 14:40:02;;;;;;;;;;;11.00;99.90;;;;;;5071571;28;19924;-48
2022/01/29 14:42:32;;;;;;;;;;;10.90;99.90;;;;;;5069223;28;19972;-48
2022/01/29 14:44:57;;;;;;;;;;;10.90;99.90;;;;;;5053507;28;20349;-48